X  Luk Metar data     KDNN Dalton Municipal Airport
Temperatur
63°F Temperatur
63°F Duggpunkt
100% Fugtighed



Vind
0 MPT
0 KM/T
0 M/S
0 KNOB



Stille
N
Nuværende forhold

Klart Klart
Tryk 1015.92 (hPa) - 30 (inHg)
Sigt 9 (mil) - 14.5 (km)
Lufthavn
Lufthavnskode KDNN

Lokation: Dalton Municipal Airport
Afstand: 34 (mi)

Metar:
KDNN 251115Z AUTO 00000KT 9SM CLR 17/17 A3000 RMK AO2 T01660166

Tid: 06-25-2024 07:15 EDT